sensor_id;sensor_type;location;lat;lon;timestamp;P1;durP1;ratioP1;P2;durP2;ratioP2
42338;SDS011;27993;45.392;10.918;2022-12-18T00:00:25;16.08;;;9.30;;
42338;SDS011;27993;45.392;10.918;2022-12-18T00:02:56;15.52;;;9.00;;
42338;SDS011;27993;45.392;10.918;2022-12-18T00:05:26;15.43;;;9.27;;
42338;SDS011;27993;45.392;10.918;2022-12-18T00:07:57;16.55;;;8.57;;
42338;SDS011;27993;45.392;10.918;2022-12-18T00:10:28;15.55;;;9.68;;
42338;SDS011;27993;45.392;10.918;2022-12-18T00:12:58;20.75;;;9.05;;
42338;SDS011;27993;45.392;10.918;2022-12-18T00:15:29;16.58;;;8.30;;
42338;SDS011;27993;45.392;10.918;2022-12-18T00:17:59;16.75;;;9.75;;
42338;SDS011;27993;45.392;10.918;2022-12-18T00:20:35;19.00;;;9.48;;
42338;SDS011;27993;45.392;10.918;2022-12-18T00:23:07;12.77;;;8.65;;
42338;SDS011;27993;45.392;10.918;2022-12-18T00:25:37;14.87;;;8.60;;
42338;SDS011;27993;45.392;10.918;2022-12-18T00:28:08;18.15;;;9.82;;
42338;SDS011;27993;45.392;10.918;2022-12-18T00:30:39;19.02;;;8.88;;
42338;SDS011;27993;45.392;10.918;2022-12-18T00:33:09;15.52;;;9.07;;
42338;SDS011;27993;45.392;10.918;2022-12-18T00:35:40;16.70;;;7.82;;
42338;SDS011;27993;45.392;10.918;2022-12-18T00:38:10;14.13;;;8.75;;
42338;SDS011;27993;45.392;10.918;2022-12-18T00:40:41;14.15;;;8.25;;
42338;SDS011;27993;45.392;10.918;2022-12-18T00:43:12;15.32;;;7.82;;
42338;SDS011;27993;45.392;10.918;2022-12-18T00:45:42;15.27;;;7.80;;
42338;SDS011;27993;45.392;10.918;2022-12-18T00:48:13;17.62;;;9.60;;
42338;SDS011;27993;45.392;10.918;2022-12-18T00:50:44;13.52;;;8.00;;
42338;SDS011;27993;45.392;10.918;2022-12-18T00:53:15;12.93;;;8.45;;
42338;SDS011;27993;45.392;10.918;2022-12-18T00:55:46;13.07;;;7.20;;
42338;SDS011;27993;45.392;10.918;2022-12-18T00:58:17;13.90;;;7.00;;
42338;SDS011;27993;45.392;10.918;2022-12-18T01:00:48;18.12;;;9.52;;
42338;SDS011;27993;45.392;10.918;2022-12-18T01:03:18;23.60;;;8.27;;
42338;SDS011;27993;45.392;10.918;2022-12-18T01:05:49;13.93;;;7.75;;
42338;SDS011;27993;45.392;10.918;2022-12-18T01:08:19;15.55;;;7.37;;
42338;SDS011;27993;45.392;10.918;2022-12-18T01:10:50;11.80;;;7.50;;
42338;SDS011;27993;45.392;10.918;2022-12-18T01:13:21;24.67;;;8.95;;
42338;SDS011;27993;45.392;10.918;2022-12-18T01:15:52;19.62;;;9.90;;
42338;SDS011;27993;45.392;10.918;2022-12-18T01:18:22;23.23;;;9.05;;
42338;SDS011;27993;45.392;10.918;2022-12-18T01:20:53;16.27;;;9.43;;
42338;SDS011;27993;45.392;10.918;2022-12-18T01:23:26;16.83;;;9.25;;
42338;SDS011;27993;45.392;10.918;2022-12-18T01:25:57;15.68;;;7.97;;
42338;SDS011;27993;45.392;10.918;2022-12-18T01:28:28;18.37;;;8.43;;
42338;SDS011;27993;45.392;10.918;2022-12-18T01:31:08;14.15;;;7.37;;
42338;SDS011;27993;45.392;10.918;2022-12-18T01:33:43;15.02;;;7.32;;
42338;SDS011;27993;45.392;10.918;2022-12-18T01:36:15;17.33;;;8.13;;
42338;SDS011;27993;45.392;10.918;2022-12-18T01:38:49;14.43;;;7.32;;
42338;SDS011;27993;45.392;10.918;2022-12-18T01:41:22;12.63;;;6.65;;
42338;SDS011;27993;45.392;10.918;2022-12-18T01:43:56;10.88;;;6.68;;
42338;SDS011;27993;45.392;10.918;2022-12-18T01:46:27;10.95;;;6.62;;
42338;SDS011;27993;45.392;10.918;2022-12-18T01:48:59;12.73;;;7.43;;
42338;SDS011;27993;45.392;10.918;2022-12-18T01:51:31;11.48;;;6.50;;
42338;SDS011;27993;45.392;10.918;2022-12-18T01:54:02;10.93;;;6.72;;
42338;SDS011;27993;45.392;10.918;2022-12-18T01:56:32;14.25;;;6.80;;
42338;SDS011;27993;45.392;10.918;2022-12-18T01:59:04;15.80;;;6.95;;
42338;SDS011;27993;45.392;10.918;2022-12-18T02:01:37;18.20;;;7.18;;
42338;SDS011;27993;45.392;10.918;2022-12-18T02:04:41;17.17;;;7.30;;
42338;SDS011;27993;45.392;10.918;2022-12-18T02:15:39;11.52;;;6.65;;
42338;SDS011;27993;45.392;10.918;2022-12-18T02:26:44;10.60;;;5.72;;
42338;SDS011;27993;45.392;10.918;2022-12-18T02:29:53;8.70;;;5.55;;
42338;SDS011;27993;45.392;10.918;2022-12-18T02:32:22;10.60;;;5.72;;
42338;SDS011;27993;45.392;10.918;2022-12-18T02:34:56;9.02;;;5.65;;
42338;SDS011;27993;45.392;10.918;2022-12-18T02:37:29;10.38;;;6.15;;
42338;SDS011;27993;45.392;10.918;2022-12-18T02:40:02;11.68;;;6.32;;
42338;SDS011;27993;45.392;10.918;2022-12-18T02:42:34;11.48;;;6.82;;
42338;SDS011;27993;45.392;10.918;2022-12-18T02:45:05;13.30;;;5.75;;
42338;SDS011;27993;45.392;10.918;2022-12-18T02:47:37;10.05;;;5.95;;
42338;SDS011;27993;45.392;10.918;2022-12-18T02:53:18;11.18;;;6.20;;
42338;SDS011;27993;45.392;10.918;2022-12-18T02:56:15;12.37;;;5.75;;
42338;SDS011;27993;45.392;10.918;2022-12-18T03:01:45;13.05;;;6.18;;
42338;SDS011;27993;45.392;10.918;2022-12-18T03:04:30;10.98;;;6.12;;
42338;SDS011;27993;45.392;10.918;2022-12-18T03:07:18;10.20;;;7.32;;
42338;SDS011;27993;45.392;10.918;2022-12-18T03:09:53;11.52;;;7.85;;
42338;SDS011;27993;45.392;10.918;2022-12-18T03:12:33;12.50;;;7.25;;
42338;SDS011;27993;45.392;10.918;2022-12-18T03:15:08;14.13;;;7.68;;
42338;SDS011;27993;45.392;10.918;2022-12-18T03:17:50;13.25;;;7.18;;
42338;SDS011;27993;45.392;10.918;2022-12-18T03:20:27;25.75;;;7.20;;
42338;SDS011;27993;45.392;10.918;2022-12-18T03:23:06;17.87;;;7.32;;
42338;SDS011;27993;45.392;10.918;2022-12-18T03:25:40;12.88;;;7.22;;
42338;SDS011;27993;45.392;10.918;2022-12-18T03:28:15;12.75;;;6.50;;
42338;SDS011;27993;45.392;10.918;2022-12-18T03:30:52;11.07;;;7.18;;
42338;SDS011;27993;45.392;10.918;2022-12-18T03:33:30;14.63;;;7.18;;
42338;SDS011;27993;45.392;10.918;2022-12-18T03:36:16;13.02;;;6.90;;
42338;SDS011;27993;45.392;10.918;2022-12-18T03:38:47;12.63;;;8.63;;
42338;SDS011;27993;45.392;10.918;2022-12-18T03:49:36;16.25;;;6.93;;
42338;SDS011;27993;45.392;10.918;2022-12-18T03:52:17;11.65;;;6.45;;
42338;SDS011;27993;45.392;10.918;2022-12-18T03:54:57;15.13;;;7.15;;
42338;SDS011;27993;45.392;10.918;2022-12-18T03:57:31;18.50;;;7.00;;
42338;SDS011;27993;45.392;10.918;2022-12-18T04:02:39;9.63;;;6.55;;
42338;SDS011;27993;45.392;10.918;2022-12-18T04:05:14;12.23;;;6.85;;
42338;SDS011;27993;45.392;10.918;2022-12-18T04:07:47;11.63;;;7.15;;
42338;SDS011;27993;45.392;10.918;2022-12-18T04:10:19;11.25;;;7.07;;
42338;SDS011;27993;45.392;10.918;2022-12-18T04:12:50;15.40;;;8.00;;
42338;SDS011;27993;45.392;10.918;2022-12-18T04:15:21;15.43;;;6.60;;
42338;SDS011;27993;45.392;10.918;2022-12-18T04:17:51;10.63;;;6.95;;
42338;SDS011;27993;45.392;10.918;2022-12-18T04:20:22;10.23;;;6.53;;
42338;SDS011;27993;45.392;10.918;2022-12-18T04:22:52;15.63;;;6.93;;
42338;SDS011;27993;45.392;10.918;2022-12-18T04:25:23;12.43;;;8.10;;
42338;SDS011;27993;45.392;10.918;2022-12-18T04:27:54;13.10;;;7.85;;
42338;SDS011;27993;45.392;10.918;2022-12-18T04:30:24;14.47;;;7.37;;
42338;SDS011;27993;45.392;10.918;2022-12-18T04:32:55;16.58;;;7.85;;
42338;SDS011;27993;45.392;10.918;2022-12-18T04:35:26;10.48;;;5.87;;
42338;SDS011;27993;45.392;10.918;2022-12-18T04:37:56;15.63;;;6.97;;
42338;SDS011;27993;45.392;10.918;2022-12-18T04:40:27;12.43;;;7.40;;
42338;SDS011;27993;45.392;10.918;2022-12-18T04:42:58;11.23;;;7.03;;
42338;SDS011;27993;45.392;10.918;2022-12-18T04:45:29;11.60;;;6.85;;
42338;SDS011;27993;45.392;10.918;2022-12-18T04:48:01;12.55;;;7.22;;
42338;SDS011;27993;45.392;10.918;2022-12-18T04:50:32;12.05;;;6.87;;
42338;SDS011;27993;45.392;10.918;2022-12-18T04:53:03;10.05;;;5.97;;
42338;SDS011;27993;45.392;10.918;2022-12-18T04:55:34;11.05;;;7.05;;
42338;SDS011;27993;45.392;10.918;2022-12-18T04:58:04;11.63;;;6.93;;
42338;SDS011;27993;45.392;10.918;2022-12-18T05:00:35;12.15;;;6.72;;
42338;SDS011;27993;45.392;10.918;2022-12-18T05:03:06;12.55;;;5.97;;
42338;SDS011;27993;45.392;10.918;2022-12-18T05:05:36;11.12;;;6.80;;
42338;SDS011;27993;45.392;10.918;2022-12-18T05:08:07;13.68;;;8.15;;
42338;SDS011;27993;45.392;10.918;2022-12-18T05:10:37;14.30;;;7.03;;
42338;SDS011;27993;45.392;10.918;2022-12-18T05:13:08;13.90;;;6.93;;
42338;SDS011;27993;45.392;10.918;2022-12-18T05:15:39;11.60;;;7.85;;
42338;SDS011;27993;45.392;10.918;2022-12-18T05:18:10;11.80;;;7.20;;
42338;SDS011;27993;45.392;10.918;2022-12-18T05:20:40;11.65;;;5.72;;
42338;SDS011;27993;45.392;10.918;2022-12-18T05:23:11;11.65;;;6.07;;
42338;SDS011;27993;45.392;10.918;2022-12-18T05:25:41;11.23;;;7.07;;
42338;SDS011;27993;45.392;10.918;2022-12-18T05:28:12;9.43;;;5.70;;
42338;SDS011;27993;45.392;10.918;2022-12-18T05:30:46;15.38;;;6.22;;
42338;SDS011;27993;45.392;10.918;2022-12-18T05:33:22;12.18;;;6.53;;
42338;SDS011;27993;45.392;10.918;2022-12-18T05:35:55;11.30;;;6.70;;
42338;SDS011;27993;45.392;10.918;2022-12-18T05:38:27;12.15;;;7.07;;
42338;SDS011;27993;45.392;10.918;2022-12-18T05:40:58;11.57;;;6.85;;
42338;SDS011;27993;45.392;10.918;2022-12-18T05:43:29;14.60;;;6.40;;
42338;SDS011;27993;45.392;10.918;2022-12-18T05:46:04;9.93;;;6.50;;
42338;SDS011;27993;45.392;10.918;2022-12-18T05:48:35;11.85;;;6.68;;
42338;SDS011;27993;45.392;10.918;2022-12-18T05:51:07;12.40;;;7.15;;
42338;SDS011;27993;45.392;10.918;2022-12-18T05:53:39;15.85;;;6.97;;
42338;SDS011;27993;45.392;10.918;2022-12-18T05:58:45;8.82;;;5.78;;
42338;SDS011;27993;45.392;10.918;2022-12-18T06:01:17;8.20;;;5.95;;
42338;SDS011;27993;45.392;10.918;2022-12-18T06:03:50;10.15;;;5.68;;
42338;SDS011;27993;45.392;10.918;2022-12-18T06:06:25;15.43;;;6.75;;
42338;SDS011;27993;45.392;10.918;2022-12-18T06:08:57;17.35;;;7.03;;
42338;SDS011;27993;45.392;10.918;2022-12-18T06:11:28;9.95;;;5.80;;
42338;SDS011;27993;45.392;10.918;2022-12-18T06:13:58;12.23;;;6.10;;
42338;SDS011;27993;45.392;10.918;2022-12-18T06:16:29;9.23;;;6.28;;
42338;SDS011;27993;45.392;10.918;2022-12-18T06:19:01;13.93;;;6.80;;
42338;SDS011;27993;45.392;10.918;2022-12-18T06:21:33;10.95;;;6.70;;
42338;SDS011;27993;45.392;10.918;2022-12-18T06:24:04;14.32;;;6.62;;
42338;SDS011;27993;45.392;10.918;2022-12-18T06:26:38;9.65;;;5.82;;
42338;SDS011;27993;45.392;10.918;2022-12-18T06:29:09;11.82;;;7.32;;
42338;SDS011;27993;45.392;10.918;2022-12-18T06:31:40;11.93;;;7.55;;
42338;SDS011;27993;45.392;10.918;2022-12-18T06:34:11;14.90;;;6.28;;
42338;SDS011;27993;45.392;10.918;2022-12-18T06:36:41;9.27;;;5.65;;
42338;SDS011;27993;45.392;10.918;2022-12-18T06:39:12;11.52;;;7.05;;
42338;SDS011;27993;45.392;10.918;2022-12-18T06:41:42;11.02;;;6.05;;
42338;SDS011;27993;45.392;10.918;2022-12-18T06:44:13;11.52;;;6.87;;
42338;SDS011;27993;45.392;10.918;2022-12-18T06:46:44;16.08;;;6.35;;
42338;SDS011;27993;45.392;10.918;2022-12-18T06:49:14;9.93;;;6.75;;
42338;SDS011;27993;45.392;10.918;2022-12-18T06:51:46;15.95;;;7.10;;
42338;SDS011;27993;45.392;10.918;2022-12-18T06:54:16;9.30;;;6.47;;
42338;SDS011;27993;45.392;10.918;2022-12-18T06:56:47;12.85;;;7.00;;
42338;SDS011;27993;45.392;10.918;2022-12-18T06:59:18;14.23;;;6.60;;
42338;SDS011;27993;45.392;10.918;2022-12-18T07:01:51;11.23;;;7.43;;
42338;SDS011;27993;45.392;10.918;2022-12-18T07:04:22;8.68;;;5.62;;
42338;SDS011;27993;45.392;10.918;2022-12-18T07:06:57;11.10;;;7.00;;
42338;SDS011;27993;45.392;10.918;2022-12-18T07:09:27;11.75;;;6.22;;
42338;SDS011;27993;45.392;10.918;2022-12-18T07:11:58;13.32;;;6.68;;
42338;SDS011;27993;45.392;10.918;2022-12-18T07:14:29;11.95;;;7.28;;
42338;SDS011;27993;45.392;10.918;2022-12-18T07:16:59;8.82;;;6.32;;
42338;SDS011;27993;45.392;10.918;2022-12-18T07:19:30;11.98;;;7.07;;
42338;SDS011;27993;45.392;10.918;2022-12-18T07:22:01;10.57;;;6.07;;
42338;SDS011;27993;45.392;10.918;2022-12-18T07:24:32;10.02;;;6.18;;
42338;SDS011;27993;45.392;10.918;2022-12-18T07:27:03;12.88;;;6.57;;
42338;SDS011;27993;45.392;10.918;2022-12-18T07:29:34;12.02;;;7.90;;
42338;SDS011;27993;45.392;10.918;2022-12-18T07:32:05;14.25;;;7.55;;
42338;SDS011;27993;45.392;10.918;2022-12-18T07:34:36;9.63;;;6.75;;
42338;SDS011;27993;45.392;10.918;2022-12-18T07:37:07;16.62;;;7.03;;
42338;SDS011;27993;45.392;10.918;2022-12-18T07:39:38;13.57;;;7.37;;
42338;SDS011;27993;45.392;10.918;2022-12-18T07:42:08;13.35;;;7.75;;
42338;SDS011;27993;45.392;10.918;2022-12-18T07:44:58;11.50;;;7.82;;
42338;SDS011;27993;45.392;10.918;2022-12-18T07:47:36;16.70;;;7.53;;
42338;SDS011;27993;45.392;10.918;2022-12-18T07:50:07;17.37;;;7.78;;
42338;SDS011;27993;45.392;10.918;2022-12-18T07:52:38;13.70;;;8.15;;
42338;SDS011;27993;45.392;10.918;2022-12-18T07:55:08;12.18;;;7.68;;
42338;SDS011;27993;45.392;10.918;2022-12-18T07:57:39;10.88;;;6.90;;
42338;SDS011;27993;45.392;10.918;2022-12-18T08:00:10;11.13;;;6.83;;
42338;SDS011;27993;45.392;10.918;2022-12-18T08:02:41;14.98;;;8.25;;
42338;SDS011;27993;45.392;10.918;2022-12-18T08:05:11;12.63;;;7.18;;
42338;SDS011;27993;45.392;10.918;2022-12-18T08:07:43;11.02;;;6.93;;
42338;SDS011;27993;45.392;10.918;2022-12-18T08:10:13;12.02;;;7.22;;
42338;SDS011;27993;45.392;10.918;2022-12-18T08:12:44;12.35;;;7.37;;
42338;SDS011;27993;45.392;10.918;2022-12-18T08:15:15;10.25;;;7.03;;
42338;SDS011;27993;45.392;10.918;2022-12-18T08:17:46;20.98;;;10.38;;
42338;SDS011;27993;45.392;10.918;2022-12-18T08:20:17;16.90;;;9.65;;
42338;SDS011;27993;45.392;10.918;2022-12-18T08:22:48;18.57;;;10.20;;
42338;SDS011;27993;45.392;10.918;2022-12-18T08:25:18;15.55;;;7.70;;
42338;SDS011;27993;45.392;10.918;2022-12-18T08:27:49;13.07;;;7.85;;
42338;SDS011;27993;45.392;10.918;2022-12-18T08:30:20;19.08;;;7.95;;
42338;SDS011;27993;45.392;10.918;2022-12-18T08:32:51;15.32;;;7.62;;
42338;SDS011;27993;45.392;10.918;2022-12-18T08:35:23;11.12;;;7.60;;
42338;SDS011;27993;45.392;10.918;2022-12-18T08:37:54;14.27;;;7.87;;
42338;SDS011;27993;45.392;10.918;2022-12-18T08:40:24;12.95;;;9.13;;
42338;SDS011;27993;45.392;10.918;2022-12-18T08:42:55;14.97;;;8.97;;
42338;SDS011;27993;45.392;10.918;2022-12-18T08:45:44;12.80;;;7.95;;
42338;SDS011;27993;45.392;10.918;2022-12-18T08:48:15;11.13;;;8.00;;
42338;SDS011;27993;45.392;10.918;2022-12-18T08:50:55;13.90;;;8.53;;
42338;SDS011;27993;45.392;10.918;2022-12-18T08:53:29;12.93;;;8.05;;
42338;SDS011;27993;45.392;10.918;2022-12-18T08:56:00;14.73;;;8.63;;
42338;SDS011;27993;45.392;10.918;2022-12-18T08:58:30;13.77;;;8.27;;
42338;SDS011;27993;45.392;10.918;2022-12-18T09:01:02;14.13;;;8.63;;
42338;SDS011;27993;45.392;10.918;2022-12-18T09:03:34;14.63;;;8.57;;
42338;SDS011;27993;45.392;10.918;2022-12-18T09:06:05;15.38;;;9.15;;
42338;SDS011;27993;45.392;10.918;2022-12-18T09:08:36;15.63;;;9.50;;
42338;SDS011;27993;45.392;10.918;2022-12-18T09:11:14;14.23;;;9.20;;
42338;SDS011;27993;45.392;10.918;2022-12-18T09:13:49;16.48;;;9.10;;
42338;SDS011;27993;45.392;10.918;2022-12-18T09:16:21;15.82;;;9.00;;
42338;SDS011;27993;45.392;10.918;2022-12-18T09:18:52;14.90;;;10.25;;
42338;SDS011;27993;45.392;10.918;2022-12-18T09:21:33;18.27;;;8.95;;
42338;SDS011;27993;45.392;10.918;2022-12-18T09:24:05;17.92;;;10.88;;
42338;SDS011;27993;45.392;10.918;2022-12-18T09:26:36;17.20;;;10.73;;
42338;SDS011;27993;45.392;10.918;2022-12-18T09:29:06;18.77;;;9.90;;
42338;SDS011;27993;45.392;10.918;2022-12-18T09:31:38;12.45;;;9.13;;
42338;SDS011;27993;45.392;10.918;2022-12-18T09:34:09;21.67;;;9.93;;
42338;SDS011;27993;45.392;10.918;2022-12-18T09:36:40;15.13;;;8.70;;
42338;SDS011;27993;45.392;10.918;2022-12-18T09:39:10;13.57;;;9.77;;
42338;SDS011;27993;45.392;10.918;2022-12-18T09:41:51;16.13;;;8.30;;
42338;SDS011;27993;45.392;10.918;2022-12-18T09:44:32;11.18;;;8.93;;
42338;SDS011;27993;45.392;10.918;2022-12-18T09:47:27;13.25;;;8.88;;
42338;SDS011;27993;45.392;10.918;2022-12-18T09:50:04;14.45;;;8.82;;
42338;SDS011;27993;45.392;10.918;2022-12-18T09:52:46;14.75;;;9.18;;
42338;SDS011;27993;45.392;10.918;2022-12-18T09:58:19;15.32;;;9.15;;
42338;SDS011;27993;45.392;10.918;2022-12-18T10:01:14;12.37;;;7.85;;
42338;SDS011;27993;45.392;10.918;2022-12-18T10:03:49;16.45;;;7.97;;
42338;SDS011;27993;45.392;10.918;2022-12-18T10:06:23;10.82;;;7.35;;
42338;SDS011;27993;45.392;10.918;2022-12-18T10:12:08;9.85;;;7.05;;
42338;SDS011;27993;45.392;10.918;2022-12-18T10:14:56;13.62;;;8.32;;
42338;SDS011;27993;45.392;10.918;2022-12-18T10:20:48;12.65;;;7.72;;
42338;SDS011;27993;45.392;10.918;2022-12-18T10:23:25;10.23;;;7.68;;
42338;SDS011;27993;45.392;10.918;2022-12-18T10:28:38;13.90;;;8.38;;
42338;SDS011;27993;45.392;10.918;2022-12-18T10:31:20;12.60;;;7.93;;
42338;SDS011;27993;45.392;10.918;2022-12-18T10:33:53;11.55;;;7.45;;
42338;SDS011;27993;45.392;10.918;2022-12-18T10:39:06;10.55;;;6.65;;
42338;SDS011;27993;45.392;10.918;2022-12-18T10:41:51;12.20;;;7.43;;
42338;SDS011;27993;45.392;10.918;2022-12-18T10:44:38;11.73;;;7.85;;
42338;SDS011;27993;45.392;10.918;2022-12-18T10:47:14;13.30;;;7.47;;
42338;SDS011;27993;45.392;10.918;2022-12-18T10:49:50;12.18;;;8.32;;
42338;SDS011;27993;45.392;10.918;2022-12-18T10:52:25;13.75;;;8.38;;
42338;SDS011;27993;45.392;10.918;2022-12-18T10:54:58;9.52;;;6.93;;
42338;SDS011;27993;45.392;10.918;2022-12-18T10:57:36;12.18;;;7.40;;
42338;SDS011;27993;45.392;10.918;2022-12-18T11:03:00;13.55;;;7.82;;
42338;SDS011;27993;45.392;10.918;2022-12-18T11:05:31;15.77;;;9.10;;
42338;SDS011;27993;45.392;10.918;2022-12-18T11:08:03;10.75;;;7.30;;
42338;SDS011;27993;45.392;10.918;2022-12-18T11:10:35;10.90;;;7.53;;
42338;SDS011;27993;45.392;10.918;2022-12-18T11:13:11;16.70;;;8.25;;
42338;SDS011;27993;45.392;10.918;2022-12-18T11:15:47;20.17;;;9.30;;
42338;SDS011;27993;45.392;10.918;2022-12-18T11:18:36;13.88;;;9.00;;
42338;SDS011;27993;45.392;10.918;2022-12-18T11:21:11;13.93;;;8.90;;
42338;SDS011;27993;45.392;10.918;2022-12-18T11:23:47;11.55;;;8.10;;
42338;SDS011;27993;45.392;10.918;2022-12-18T11:26:20;14.85;;;9.15;;
42338;SDS011;27993;45.392;10.918;2022-12-18T11:29:10;15.05;;;8.90;;
42338;SDS011;27993;45.392;10.918;2022-12-18T11:31:47;12.18;;;8.48;;
42338;SDS011;27993;45.392;10.918;2022-12-18T11:37:01;10.48;;;7.85;;
42338;SDS011;27993;45.392;10.918;2022-12-18T11:50:26;12.88;;;8.73;;
42338;SDS011;27993;45.392;10.918;2022-12-18T11:53:10;12.60;;;8.68;;
42338;SDS011;27993;45.392;10.918;2022-12-18T12:12:41;24.00;;;10.15;;
42338;SDS011;27993;45.392;10.918;2022-12-18T12:15:22;13.23;;;9.98;;
42338;SDS011;27993;45.392;10.918;2022-12-18T12:17:59;13.38;;;9.35;;
42338;SDS011;27993;45.392;10.918;2022-12-18T12:20:39;13.73;;;9.75;;
42338;SDS011;27993;45.392;10.918;2022-12-18T12:26:19;14.25;;;9.10;;
42338;SDS011;27993;45.392;10.918;2022-12-18T12:31:58;11.25;;;9.50;;
42338;SDS011;27993;45.392;10.918;2022-12-18T12:40:22;16.45;;;9.30;;
42338;SDS011;27993;45.392;10.918;2022-12-18T12:42:58;14.13;;;8.82;;
42338;SDS011;27993;45.392;10.918;2022-12-18T12:45:44;17.00;;;10.57;;
42338;SDS011;27993;45.392;10.918;2022-12-18T12:48:27;14.70;;;9.10;;
42338;SDS011;27993;45.392;10.918;2022-12-18T12:51:25;19.80;;;12.63;;
42338;SDS011;27993;45.392;10.918;2022-12-18T12:53:57;19.35;;;11.25;;
42338;SDS011;27993;45.392;10.918;2022-12-18T12:59:47;13.48;;;7.90;;
42338;SDS011;27993;45.392;10.918;2022-12-18T13:05:24;13.48;;;7.03;;
42338;SDS011;27993;45.392;10.918;2022-12-18T13:08:05;13.40;;;8.73;;
42338;SDS011;27993;45.392;10.918;2022-12-18T13:10:41;11.48;;;8.13;;
42338;SDS011;27993;45.392;10.918;2022-12-18T13:13:13;12.23;;;7.12;;
42338;SDS011;27993;45.392;10.918;2022-12-18T13:15:48;12.18;;;7.62;;
42338;SDS011;27993;45.392;10.918;2022-12-18T13:18:32;11.57;;;7.75;;
42338;SDS011;27993;45.392;10.918;2022-12-18T13:21:08;20.58;;;11.77;;
42338;SDS011;27993;45.392;10.918;2022-12-18T13:26:55;12.70;;;8.20;;
42338;SDS011;27993;45.392;10.918;2022-12-18T13:29:43;13.37;;;9.30;;
42338;SDS011;27993;45.392;10.918;2022-12-18T13:32:24;9.10;;;6.90;;
42338;SDS011;27993;45.392;10.918;2022-12-18T13:43:22;16.83;;;8.82;;
42338;SDS011;27993;45.392;10.918;2022-12-18T13:48:35;13.40;;;9.10;;
42338;SDS011;27993;45.392;10.918;2022-12-18T13:51:09;19.20;;;11.20;;
42338;SDS011;27993;45.392;10.918;2022-12-18T13:53:44;14.70;;;8.73;;
42338;SDS011;27993;45.392;10.918;2022-12-18T13:56:24;18.52;;;8.50;;
42338;SDS011;27993;45.392;10.918;2022-12-18T14:04:26;54.07;;;31.80;;
42338;SDS011;27993;45.392;10.918;2022-12-18T14:07:06;114.97;;;56.85;;
42338;SDS011;27993;45.392;10.918;2022-12-18T14:09:42;56.83;;;33.30;;
42338;SDS011;27993;45.392;10.918;2022-12-18T14:12:17;24.10;;;14.73;;
42338;SDS011;27993;45.392;10.918;2022-12-18T14:15:25;14.95;;;9.38;;
42338;SDS011;27993;45.392;10.918;2022-12-18T14:20:41;11.02;;;7.50;;
42338;SDS011;27993;45.392;10.918;2022-12-18T14:23:33;15.63;;;7.82;;
42338;SDS011;27993;45.392;10.918;2022-12-18T14:28:59;12.85;;;8.32;;
42338;SDS011;27993;45.392;10.918;2022-12-18T14:32:10;21.10;;;11.07;;
42338;SDS011;27993;45.392;10.918;2022-12-18T14:34:49;11.12;;;7.15;;
42338;SDS011;27993;45.392;10.918;2022-12-18T14:37:21;10.20;;;6.35;;
42338;SDS011;27993;45.392;10.918;2022-12-18T14:42:29;16.33;;;9.45;;
42338;SDS011;27993;45.392;10.918;2022-12-18T14:45:46;9.65;;;7.62;;
42338;SDS011;27993;45.392;10.918;2022-12-18T14:48:22;10.77;;;7.65;;
42338;SDS011;27993;45.392;10.918;2022-12-18T14:53:55;13.65;;;8.85;;
42338;SDS011;27993;45.392;10.918;2022-12-18T14:56:34;15.98;;;9.07;;
42338;SDS011;27993;45.392;10.918;2022-12-18T14:59:13;12.95;;;8.23;;
42338;SDS011;27993;45.392;10.918;2022-12-18T15:01:47;13.20;;;8.48;;
42338;SDS011;27993;45.392;10.918;2022-12-18T15:04:34;21.50;;;9.23;;
42338;SDS011;27993;45.392;10.918;2022-12-18T15:07:22;18.85;;;11.32;;
42338;SDS011;27993;45.392;10.918;2022-12-18T15:10:11;26.58;;;14.00;;
42338;SDS011;27993;45.392;10.918;2022-12-18T15:20:44;26.60;;;12.50;;
42338;SDS011;27993;45.392;10.918;2022-12-18T15:24:00;24.02;;;13.93;;
42338;SDS011;27993;45.392;10.918;2022-12-18T15:26:15;23.33;;;13.73;;
42338;SDS011;27993;45.392;10.918;2022-12-18T15:28:51;22.08;;;14.07;;
42338;SDS011;27993;45.392;10.918;2022-12-18T15:31:29;23.73;;;14.27;;
42338;SDS011;27993;45.392;10.918;2022-12-18T15:34:05;21.43;;;13.15;;
42338;SDS011;27993;45.392;10.918;2022-12-18T15:36:42;22.15;;;14.52;;
42338;SDS011;27993;45.392;10.918;2022-12-18T15:39:13;26.37;;;16.57;;
42338;SDS011;27993;45.392;10.918;2022-12-18T15:41:43;32.60;;;17.33;;
42338;SDS011;27993;45.392;10.918;2022-12-18T15:44:34;25.92;;;16.77;;
42338;SDS011;27993;45.392;10.918;2022-12-18T15:47:10;26.65;;;16.27;;
42338;SDS011;27993;45.392;10.918;2022-12-18T15:49:42;32.20;;;16.80;;
42338;SDS011;27993;45.392;10.918;2022-12-18T15:52:12;31.10;;;17.80;;
42338;SDS011;27993;45.392;10.918;2022-12-18T15:54:43;35.72;;;21.35;;
42338;SDS011;27993;45.392;10.918;2022-12-18T15:57:33;45.08;;;20.90;;
42338;SDS011;27993;45.392;10.918;2022-12-18T16:00:04;52.37;;;24.30;;
42338;SDS011;27993;45.392;10.918;2022-12-18T16:02:35;32.45;;;20.20;;
42338;SDS011;27993;45.392;10.918;2022-12-18T16:05:09;34.30;;;20.23;;
42338;SDS011;27993;45.392;10.918;2022-12-18T16:07:45;52.00;;;27.95;;
42338;SDS011;27993;45.392;10.918;2022-12-18T16:10:16;58.08;;;29.23;;
42338;SDS011;27993;45.392;10.918;2022-12-18T16:12:46;38.77;;;21.60;;
42338;SDS011;27993;45.392;10.918;2022-12-18T16:15:17;40.53;;;22.57;;
42338;SDS011;27993;45.392;10.918;2022-12-18T16:17:48;45.90;;;21.87;;
42338;SDS011;27993;45.392;10.918;2022-12-18T16:20:20;40.77;;;21.63;;
42338;SDS011;27993;45.392;10.918;2022-12-18T16:22:51;37.30;;;18.77;;
42338;SDS011;27993;45.392;10.918;2022-12-18T16:25:23;38.40;;;20.60;;
42338;SDS011;27993;45.392;10.918;2022-12-18T16:27:56;44.65;;;25.10;;
42338;SDS011;27993;45.392;10.918;2022-12-18T16:30:27;53.60;;;30.00;;
42338;SDS011;27993;45.392;10.918;2022-12-18T16:33:00;39.92;;;22.42;;
42338;SDS011;27993;45.392;10.918;2022-12-18T16:35:31;43.57;;;20.83;;
42338;SDS011;27993;45.392;10.918;2022-12-18T16:38:02;36.22;;;20.23;;
42338;SDS011;27993;45.392;10.918;2022-12-18T16:40:33;36.77;;;19.67;;
42338;SDS011;27993;45.392;10.918;2022-12-18T16:43:23;38.60;;;19.10;;
42338;SDS011;27993;45.392;10.918;2022-12-18T16:45:54;36.50;;;18.17;;
42338;SDS011;27993;45.392;10.918;2022-12-18T16:48:27;32.78;;;19.58;;
42338;SDS011;27993;45.392;10.918;2022-12-18T16:51:02;34.43;;;18.27;;
42338;SDS011;27993;45.392;10.918;2022-12-18T16:53:34;40.15;;;25.15;;
42338;SDS011;27993;45.392;10.918;2022-12-18T16:56:04;51.87;;;31.23;;
42338;SDS011;27993;45.392;10.918;2022-12-18T16:58:35;55.43;;;34.80;;
42338;SDS011;27993;45.392;10.918;2022-12-18T17:01:07;68.43;;;40.50;;
42338;SDS011;27993;45.392;10.918;2022-12-18T17:03:38;66.80;;;41.30;;
42338;SDS011;27993;45.392;10.918;2022-12-18T17:06:09;46.43;;;30.13;;
42338;SDS011;27993;45.392;10.918;2022-12-18T17:08:39;40.10;;;24.37;;
42338;SDS011;27993;45.392;10.918;2022-12-18T17:11:10;40.73;;;23.40;;
42338;SDS011;27993;45.392;10.918;2022-12-18T17:13:41;43.87;;;23.50;;
42338;SDS011;27993;45.392;10.918;2022-12-18T17:16:11;55.12;;;29.25;;
42338;SDS011;27993;45.392;10.918;2022-12-18T17:18:42;64.30;;;31.00;;
42338;SDS011;27993;45.392;10.918;2022-12-18T17:21:13;48.90;;;27.03;;
42338;SDS011;27993;45.392;10.918;2022-12-18T17:23:44;43.40;;;25.27;;